createdAt,value
2018-09-11T00:00:01.734Z,7
2018-09-11T00:02:02.413Z,7.68
2018-09-11T00:06:03.143Z,7.41
2018-09-11T00:12:04.086Z,7.59
2018-09-11T00:16:04.898Z,7.74
2018-09-11T00:22:05.673Z,7.27
2018-09-11T00:26:06.347Z,6.26
2018-09-11T00:28:07.115Z,7.36
2018-09-11T00:32:07.862Z,6.77
2018-09-11T00:38:08.712Z,6.67
2018-09-11T00:42:09.488Z,6.59
2018-09-11T00:48:10.310Z,6.48
2018-09-11T00:54:11.124Z,6.65
2018-09-11T00:58:11.795Z,6.23
2018-09-11T01:04:12.544Z,7.26
2018-09-11T01:08:13.258Z,6.69
2018-09-11T01:14:14.016Z,6.6
2018-09-11T01:20:14.858Z,6.34
2018-09-11T01:24:15.701Z,6.43
2018-09-11T01:30:16.949Z,6.42
2018-09-11T01:34:17.786Z,6.03
2018-09-11T01:40:18.591Z,6.38
2018-09-11T01:46:19.383Z,6.46
2018-09-11T01:50:20.230Z,6.51
2018-09-11T01:56:20.963Z,6.81
2018-09-11T02:00:23.065Z,6.58
2018-09-11T02:06:23.907Z,6.69
2018-09-11T02:12:24.639Z,6.47
2018-09-11T02:16:25.448Z,6.67
2018-09-11T02:22:26.217Z,7.18
2018-09-11T02:26:26.895Z,6.78
2018-09-11T02:32:27.692Z,6.43
2018-09-11T02:38:28.460Z,7.12
2018-09-11T02:42:29.315Z,6.49
2018-09-11T02:48:30.132Z,6.92
2018-09-11T02:52:30.877Z,6.45
2018-09-11T02:58:31.695Z,6.61
2018-09-11T03:04:32.581Z,6.67
2018-09-11T03:08:33.196Z,6.42
2018-09-11T03:14:34.010Z,6.6
2018-09-11T03:18:34.696Z,6.62
2018-09-11T03:24:35.512Z,6.67
2018-09-11T03:30:36.238Z,7.16
2018-09-11T03:34:36.952Z,6.97
2018-09-11T03:40:37.684Z,7.09
2018-09-11T03:44:38.489Z,6.91
2018-09-11T03:46:39.499Z,7.13
2018-09-11T03:50:40.234Z,6.48
2018-09-11T03:56:40.986Z,6.85
2018-09-11T04:00:41.743Z,6.34
2018-09-11T04:06:42.471Z,7.06
2018-09-11T04:10:43.255Z,6.81
2018-09-11T04:12:44.027Z,6.81
2018-09-11T04:16:44.774Z,6.93
2018-09-11T04:22:45.613Z,7.02
2018-09-11T04:26:46.297Z,6.82
2018-09-11T04:32:47.154Z,7.65
2018-09-11T04:36:47.930Z,7.09
2018-09-11T04:38:48.708Z,7.29
2018-09-11T04:42:49.513Z,7.5
2018-09-11T04:48:50.252Z,8.34
2018-09-11T04:52:51.276Z,8.05
2018-09-11T04:58:52.074Z,8.2
2018-09-11T05:02:52.849Z,8.96
2018-09-11T05:04:53.575Z,9.22
2018-09-11T05:08:54.338Z,7.86
2018-09-11T05:14:55.209Z,8.09
2018-09-11T05:18:55.971Z,7.65
2018-09-11T05:24:56.719Z,7.61
2018-09-11T05:28:57.555Z,8.05
2018-09-11T05:30:58.268Z,8.89
2018-09-11T05:34:58.965Z,8.31
2018-09-11T05:40:59.682Z,8.17
2018-09-11T05:45:00.396Z,7.9
2018-09-11T05:51:01.279Z,8.82
2018-09-11T05:55:02.073Z,8.24
2018-09-11T05:57:02.789Z,8.12
2018-09-11T06:01:03.501Z,7.87
2018-09-11T06:07:04.330Z,9.23
2018-09-11T06:11:05.108Z,9.45
2018-09-11T06:17:06.015Z,9.07
2018-09-11T06:21:06.850Z,8.52
2018-09-11T06:23:07.663Z,9.1
2018-09-11T06:27:08.493Z,9.05
2018-09-11T06:33:09.309Z,8.99
2018-09-11T06:37:10.045Z,8.84
2018-09-11T06:43:10.850Z,9
2018-09-11T06:47:11.627Z,8.55
2018-09-11T06:49:12.325Z,9.86
2018-09-11T06:53:13.134Z,9.45
2018-09-11T06:59:14.006Z,9.71
2018-09-11T07:03:14.765Z,9.34
2018-09-11T07:09:16.232Z,10.25
2018-09-11T07:13:16.917Z,10.38
2018-09-11T07:15:18.020Z,10.82
2018-09-11T07:19:19.019Z,10.69
2018-09-11T07:25:19.852Z,9.62
2018-09-11T07:29:21.069Z,9.3
2018-09-11T07:35:21.816Z,10.25
2018-09-11T07:39:22.604Z,9.94
2018-09-11T07:41:23.530Z,11.09
2018-09-11T07:45:24.755Z,9.85
2018-09-11T07:51:25.707Z,8.84
2018-09-11T07:55:26.404Z,8.93
2018-09-11T08:01:27.251Z,9.29
2018-09-11T08:05:28.001Z,8.98
2018-09-11T08:07:28.766Z,9.46
2018-09-11T08:11:29.459Z,8.72
2018-09-11T08:17:30.259Z,8.04
2018-09-11T08:21:31.030Z,8.35
2018-09-11T08:27:31.797Z,8.98
2018-09-11T08:33:32.921Z,8.97
2018-09-11T08:37:33.676Z,8.54
2018-09-11T08:43:34.437Z,8.84
2018-09-11T08:47:35.131Z,8.26
2018-09-11T08:53:35.931Z,8.84
2018-09-11T08:59:36.691Z,8.55
2018-09-11T09:03:37.429Z,8.44
2018-09-11T09:09:38.176Z,8.94
2018-09-11T09:13:38.896Z,9.03
2018-09-11T09:19:39.861Z,8.37
2018-09-11T09:25:40.626Z,9.23
2018-09-11T09:29:41.297Z,8.39
2018-09-11T09:35:42.030Z,8.24
2018-09-11T09:39:42.771Z,7.62
2018-09-11T09:45:43.472Z,7.63
2018-09-11T09:51:44.315Z,7.96
2018-09-11T09:55:45.067Z,7.75
2018-09-11T10:01:45.772Z,8.15
2018-09-11T10:05:46.397Z,8.12
2018-09-11T10:11:47.137Z,7.98
2018-09-11T10:17:47.935Z,8.29
2018-09-11T10:21:48.638Z,7.48
2018-09-11T10:27:49.298Z,7.94
2018-09-11T10:31:50.059Z,7.79
2018-09-11T10:33:50.883Z,8.42
2018-09-11T10:37:51.401Z,7.7
2018-09-11T10:43:52.243Z,8.16
2018-09-11T10:47:52.923Z,7.7
2018-09-11T10:53:53.912Z,8.48
2018-09-11T10:57:54.540Z,8.24
2018-09-11T10:59:55.260Z,7.81
2018-09-11T11:03:56.008Z,7.35
2018-09-11T11:09:56.899Z,8.4
2018-09-11T11:13:57.567Z,7.68
2018-09-11T11:19:58.353Z,7.89
2018-09-11T11:23:59.117Z,7.47
2018-09-11T11:25:59.851Z,7.87
2018-09-11T11:30:00.582Z,7.84
2018-09-11T11:36:01.347Z,8.43
2018-09-11T11:40:01.982Z,7.77
2018-09-11T11:46:02.744Z,7.27
2018-09-11T11:50:03.422Z,7.17
2018-09-11T11:52:04.183Z,7.15
2018-09-11T11:56:04.876Z,6.7
2018-09-11T12:02:05.884Z,6.42
2018-09-11T12:06:07.146Z,6.26
2018-09-11T12:12:08.104Z,4.85
2018-09-11T12:18:09.037Z,5.01
2018-09-11T12:22:09.774Z,4.58
2018-09-11T12:28:10.520Z,4.08
2018-09-11T12:32:11.202Z,3.78
2018-09-11T12:38:11.997Z,4.17
2018-09-11T12:44:12.803Z,4.01
2018-09-11T12:48:14.106Z,4.24
2018-09-11T12:54:14.455Z,4.74
2018-09-11T12:58:15.108Z,4.37
2018-09-11T13:04:15.862Z,4.95
2018-09-11T13:10:16.643Z,4.62
2018-09-11T13:14:17.279Z,4.49
2018-09-11T13:20:18.087Z,4.7
2018-09-11T13:24:18.841Z,4.55
2018-09-11T13:30:19.618Z,4.5
2018-09-11T13:36:20.529Z,4.53
2018-09-11T13:40:21.248Z,4.91
2018-09-11T13:46:22.025Z,5.02
2018-09-11T13:50:22.920Z,4.96
2018-09-11T13:52:23.630Z,4.87
2018-09-11T13:56:24.363Z,4.79
2018-09-11T14:02:25.199Z,4.6
2018-09-11T14:06:25.901Z,4.3
2018-09-11T14:12:26.689Z,4.99
2018-09-11T14:16:27.483Z,4.36
2018-09-11T14:18:28.236Z,4.76
2018-09-11T14:22:29.115Z,4.91
2018-09-11T14:28:29.822Z,4.6
2018-09-11T14:32:30.641Z,4.7
2018-09-11T14:38:31.444Z,4.72
2018-09-11T14:42:32.160Z,4.33
2018-09-11T14:44:32.884Z,4.19
2018-09-11T14:48:33.613Z,4.69
2018-09-11T14:54:34.323Z,4.5
2018-09-11T14:58:35.110Z,4.32
2018-09-11T15:04:35.935Z,5.26
2018-09-11T15:08:36.664Z,3.96
2018-09-11T15:10:37.285Z,4.4
2018-09-11T15:14:38.091Z,4.73
2018-09-11T15:20:38.837Z,4.14
2018-09-11T15:24:39.563Z,3.99
2018-09-11T15:30:40.402Z,4.52
2018-09-11T15:36:41.354Z,4.82
2018-09-11T15:40:42.313Z,4.6
2018-09-11T15:46:43.112Z,4.53
2018-09-11T15:50:43.946Z,4.58
2018-09-11T15:56:44.635Z,4.25
2018-09-11T16:02:45.399Z,4.71
2018-09-11T16:06:46.125Z,5.9
2018-09-11T16:12:46.908Z,6.25
2018-09-11T16:16:47.852Z,6.4
2018-09-11T16:22:48.653Z,5.32
2018-09-11T16:28:49.484Z,5.37
2018-09-11T16:32:50.391Z,5.71
2018-09-11T16:38:51.162Z,6.45
2018-09-11T16:42:52.028Z,6
2018-09-11T16:48:52.825Z,6.41
2018-09-11T16:54:53.586Z,6.34
2018-09-11T16:58:54.407Z,6.3
2018-09-11T17:04:55.156Z,6.55
2018-09-11T17:08:55.990Z,6.08
2018-09-11T17:10:56.651Z,7.3
2018-09-11T17:14:57.667Z,6.04
2018-09-11T17:20:58.291Z,6.89
2018-09-11T17:24:59.352Z,6.9
2018-09-11T17:31:00.115Z,8.62
2018-09-11T17:35:01.120Z,8.43
2018-09-11T17:37:01.882Z,7.71
2018-09-11T17:41:02.650Z,7.23
2018-09-11T17:47:03.374Z,7.15
2018-09-11T17:51:04.247Z,7.01
2018-09-11T17:57:04.937Z,7.81
2018-09-11T18:01:05.713Z,7.35
2018-09-11T18:03:06.588Z,6.43
2018-09-11T18:07:07.536Z,6.86
2018-09-11T18:13:08.241Z,6.76
2018-09-11T18:17:08.992Z,6.29
2018-09-11T18:23:09.818Z,7.72
2018-09-11T18:27:10.672Z,8.85
2018-09-11T18:29:11.350Z,7.94
2018-09-11T18:33:12.103Z,7.57
2018-09-11T18:39:12.877Z,9.5
2018-09-11T18:43:14.954Z,9.73
2018-09-11T18:49:15.954Z,11.12
2018-09-11T18:55:16.807Z,8.92
2018-09-11T18:59:17.688Z,8.4
2018-09-11T19:05:18.872Z,7.79
2018-09-11T19:09:20.131Z,8.58
2018-09-11T19:15:21.321Z,8.66
2018-09-11T19:21:22.174Z,7.06
2018-09-11T19:25:23.136Z,6.87
2018-09-11T19:31:23.936Z,12.7
2018-09-11T19:35:25.022Z,11.93
2018-09-11T19:41:25.942Z,9.72
2018-09-11T19:47:26.799Z,8.89
2018-09-11T19:51:27.766Z,8.2
2018-09-11T19:57:28.776Z,6.72
2018-09-11T20:01:29.515Z,6.53
2018-09-11T20:07:30.292Z,7.43
2018-09-11T20:13:31.306Z,9.39
2018-09-11T20:17:32.216Z,8.79
2018-09-11T20:23:33.013Z,8.11
2018-09-11T20:27:34.962Z,7.89
2018-09-11T20:33:35.644Z,8.64
2018-09-11T20:39:36.579Z,7.67
2018-09-11T20:43:37.286Z,7.46
2018-09-11T20:49:38.151Z,8.05
2018-09-11T20:59:41.496Z,8.29
2018-09-11T20:59:41.680Z,7.97
2018-09-11T21:05:42.689Z,9.24
2018-09-11T21:09:43.667Z,8.36
2018-09-11T21:15:44.440Z,10.21
2018-09-11T21:19:45.272Z,9.18
2018-09-11T21:21:46.135Z,9.92
2018-09-11T21:25:46.951Z,9.55
2018-09-11T21:31:47.769Z,9.94
2018-09-11T21:35:48.592Z,9.68
2018-09-11T21:41:49.386Z,9.63
2018-09-11T21:45:50.227Z,9.47
2018-09-11T21:47:50.913Z,9.16
2018-09-11T21:51:51.617Z,9.1
2018-09-11T21:57:52.475Z,8.56
2018-09-11T22:01:53.616Z,8.44
2018-09-11T22:07:54.560Z,8.95
2018-09-11T22:11:55.468Z,8.53
2018-09-11T22:13:56.104Z,8.44
2018-09-11T22:17:57.192Z,7.48
2018-09-11T22:23:58.011Z,8.67
2018-09-11T22:27:58.633Z,8.51
2018-09-11T22:33:59.427Z,8.46
2018-09-11T22:38:00.231Z,8.72
2018-09-11T22:40:01.047Z,8.23
2018-09-11T22:44:01.649Z,8.17
2018-09-11T22:50:02.526Z,8.25
2018-09-11T22:54:03.230Z,8.36
2018-09-11T23:00:04.027Z,8.54
2018-09-11T23:04:04.829Z,8.15
2018-09-11T23:06:05.506Z,9.04
2018-09-11T23:10:06.339Z,8.27
2018-09-11T23:16:07.103Z,8.46
2018-09-11T23:20:07.803Z,9.2
2018-09-11T23:26:08.620Z,8.57
2018-09-11T23:30:09.891Z,8.65
2018-09-11T23:32:10.797Z,8.97
2018-09-11T23:36:11.758Z,8.47
2018-09-11T23:42:12.671Z,9.69
2018-09-11T23:46:13.609Z,8.74
2018-09-11T23:52:14.471Z,9.48
2018-09-11T23:56:15.354Z,8.62
2018-09-11T23:58:16.204Z,9.21
